createdAt,value
2016-08-24T00:00:21.554Z,-82
2016-08-24T00:01:21.562Z,-81
2016-08-24T00:02:21.607Z,-81
2016-08-24T00:03:21.569Z,-81
2016-08-24T00:04:21.480Z,-81
2016-08-24T00:05:21.652Z,-81
2016-08-24T00:06:21.573Z,-81
2016-08-24T00:07:21.664Z,-82
2016-08-24T00:08:21.656Z,-81
2016-08-24T00:09:21.490Z,-81
2016-08-24T00:10:21.581Z,-81
2016-08-24T00:11:21.565Z,-81
2016-08-24T00:12:21.505Z,-81
2016-08-24T00:13:21.536Z,-81
2016-08-24T00:14:21.661Z,-81
2016-08-24T00:15:21.512Z,-81
2016-08-24T00:16:21.586Z,-81
2016-08-24T00:17:21.611Z,-81
2016-08-24T00:18:21.586Z,-81
2016-08-24T00:19:21.678Z,-82
2016-08-24T00:20:21.676Z,-81
2016-08-24T00:21:21.691Z,-81
2016-08-24T00:22:21.607Z,-81
2016-08-24T00:23:21.667Z,-81
2016-08-24T00:24:21.681Z,-81
2016-08-24T00:25:21.681Z,-81
2016-08-24T00:26:21.758Z,-81
2016-08-24T00:27:21.594Z,-81
2016-08-24T00:28:21.635Z,-81
2016-08-24T00:29:21.558Z,-81
2016-08-24T00:30:21.706Z,-81
2016-08-24T00:31:21.770Z,-82
2016-08-24T00:32:21.622Z,-81
2016-08-24T00:33:21.640Z,-81
2016-08-24T00:34:21.761Z,-82
2016-08-24T00:35:21.700Z,-81
2016-08-24T00:36:21.725Z,-82
2016-08-24T00:37:21.633Z,-81
2016-08-24T00:38:21.781Z,-81
2016-08-24T00:39:21.640Z,-82
2016-08-24T00:40:21.631Z,-81
2016-08-24T00:41:21.784Z,-81
2016-08-24T00:42:21.846Z,-82
2016-08-24T00:43:21.548Z,-81
2016-08-24T00:44:21.714Z,-81
2016-08-24T00:45:21.632Z,-81
2016-08-24T00:46:21.630Z,-81
2016-08-24T00:47:21.725Z,-82
2016-08-24T00:48:21.812Z,-81
2016-08-24T00:49:21.566Z,-81
2016-08-24T00:50:21.641Z,-81
2016-08-24T00:51:21.571Z,-81
2016-08-24T00:52:21.717Z,-81
2016-08-24T00:53:21.725Z,-81
2016-08-24T00:54:21.648Z,-81
2016-08-24T00:55:21.729Z,-81
2016-08-24T00:56:21.742Z,-81
2016-08-24T00:57:21.706Z,-81
2016-08-24T00:58:21.735Z,-81
2016-08-24T00:59:21.731Z,-81
2016-08-24T01:00:21.739Z,-81
2016-08-24T01:01:21.584Z,-82
2016-08-24T01:02:21.928Z,-81
2016-08-24T01:03:21.735Z,-81
2016-08-24T01:04:21.738Z,-81
2016-08-24T01:05:21.657Z,-81
2016-08-24T01:06:21.739Z,-81
2016-08-24T01:07:21.678Z,-81
2016-08-24T01:08:21.742Z,-81
2016-08-24T01:09:21.668Z,-81
2016-08-24T01:10:21.663Z,-81
2016-08-24T01:11:21.658Z,-81
2016-08-24T01:12:21.741Z,-81
2016-08-24T01:13:21.672Z,-81
2016-08-24T01:14:21.690Z,-81
2016-08-24T01:15:21.755Z,-82
2016-08-24T01:16:21.751Z,-81
2016-08-24T01:17:21.675Z,-81
2016-08-24T01:18:21.669Z,-82
2016-08-24T01:19:21.670Z,-81
2016-08-24T01:20:21.766Z,-81
2016-08-24T01:21:21.848Z,-81
2016-08-24T01:22:21.854Z,-81
2016-08-24T01:23:21.764Z,-81
2016-08-24T01:24:21.836Z,-81
2016-08-24T01:25:21.595Z,-81
2016-08-24T01:26:21.604Z,-81
2016-08-24T01:27:21.775Z,-81
2016-08-24T01:28:21.711Z,-81
2016-08-24T01:29:21.859Z,-81
2016-08-24T01:30:21.705Z,-81
2016-08-24T01:31:21.696Z,-82
2016-08-24T01:32:21.741Z,-82
2016-08-24T01:33:21.772Z,-81
2016-08-24T01:34:21.716Z,-81
2016-08-24T01:35:21.856Z,-81
2016-08-24T01:36:21.795Z,-82
2016-08-24T01:37:21.865Z,-81
2016-08-24T01:38:21.720Z,-81
2016-08-24T01:39:21.789Z,-82
2016-08-24T01:40:21.713Z,-81
2016-08-24T01:41:21.798Z,-81
2016-08-24T01:42:21.699Z,-81
2016-08-24T01:43:21.815Z,-83
2016-08-24T01:44:21.868Z,-81
2016-08-24T01:45:21.796Z,-81
2016-08-24T01:46:21.809Z,-82
2016-08-24T01:47:21.747Z,-81
2016-08-24T01:48:21.729Z,-81
2016-08-24T01:49:21.725Z,-81
2016-08-24T01:50:21.813Z,-81
2016-08-24T01:51:21.806Z,-82
2016-08-24T01:52:21.894Z,-81
2016-08-24T01:53:21.797Z,-81
2016-08-24T01:54:21.717Z,-82
2016-08-24T01:55:21.800Z,-82
2016-08-24T01:56:21.642Z,-82
2016-08-24T01:57:21.643Z,-82
2016-08-24T01:58:21.709Z,-82
2016-08-24T01:59:21.724Z,-81
2016-08-24T02:00:21.723Z,-82
2016-08-24T02:01:21.932Z,-81
2016-08-24T02:02:21.775Z,-81
2016-08-24T02:03:21.899Z,-81
2016-08-24T02:04:21.845Z,-81
2016-08-24T02:05:21.740Z,-81
2016-08-24T02:06:21.826Z,-81
2016-08-24T02:07:21.824Z,-81
2016-08-24T02:08:21.831Z,-81
2016-08-24T02:09:21.812Z,-81
2016-08-24T02:10:21.848Z,-81
2016-08-24T02:11:21.776Z,-81
2016-08-24T02:12:21.669Z,-81
2016-08-24T02:13:21.747Z,-81
2016-08-24T02:14:21.795Z,-81
2016-08-24T02:15:21.829Z,-81
2016-08-24T02:16:21.837Z,-81
2016-08-24T02:17:21.892Z,-82
2016-08-24T02:18:21.755Z,-81
2016-08-24T02:19:21.865Z,-81
2016-08-24T02:20:21.748Z,-81
2016-08-24T02:21:21.908Z,-82
2016-08-24T02:22:21.696Z,-82
2016-08-24T02:23:21.750Z,-82
2016-08-24T02:24:21.759Z,-81
2016-08-24T02:25:21.708Z,-82
2016-08-24T02:26:21.844Z,-81
2016-08-24T02:27:21.770Z,-81
2016-08-24T02:28:21.842Z,-81
2016-08-24T02:29:21.698Z,-81
2016-08-24T02:30:21.803Z,-81
2016-08-24T02:31:21.850Z,-81
2016-08-24T02:32:21.854Z,-81
2016-08-24T02:33:21.863Z,-81
2016-08-24T02:34:21.877Z,-81
2016-08-24T02:35:21.778Z,-81
2016-08-24T02:36:21.924Z,-81
2016-08-24T02:37:21.709Z,-81
2016-08-24T02:38:21.784Z,-81
2016-08-24T02:39:21.818Z,-82
2016-08-24T02:40:21.791Z,-81
2016-08-24T02:41:21.794Z,-81
2016-08-24T02:42:21.863Z,-81
2016-08-24T02:43:21.806Z,-81
2016-08-24T02:44:21.888Z,-81
2016-08-24T02:45:21.804Z,-81
2016-08-24T02:46:21.806Z,-81
2016-08-24T02:47:21.894Z,-81
2016-08-24T02:48:21.886Z,-82
2016-08-24T02:49:21.811Z,-81
2016-08-24T02:50:21.804Z,-81
2016-08-24T02:51:21.913Z,-81
2016-08-24T02:52:21.941Z,-81
2016-08-24T02:53:21.876Z,-81
2016-08-24T02:54:21.896Z,-81
2016-08-24T02:55:21.726Z,-82
2016-08-24T02:56:21.968Z,-81
2016-08-24T02:57:21.917Z,-81
2016-08-24T02:58:21.895Z,-81
2016-08-24T02:59:21.889Z,-81
2016-08-24T03:00:21.899Z,-81
2016-08-24T03:01:21.757Z,-81
2016-08-24T03:02:21.856Z,-81
2016-08-24T03:03:21.968Z,-81
2016-08-24T03:04:21.832Z,-81
2016-08-24T03:05:21.808Z,-81
2016-08-24T03:06:21.826Z,-81
2016-08-24T03:07:21.812Z,-81
2016-08-24T03:08:21.839Z,-81
2016-08-24T03:09:21.863Z,-82
2016-08-24T03:10:21.913Z,-81
2016-08-24T03:11:21.976Z,-81
2016-08-24T03:12:21.790Z,-81
2016-08-24T03:13:21.821Z,-81
2016-08-24T03:14:21.975Z,-81
2016-08-24T03:15:21.837Z,-81
2016-08-24T03:16:22.018Z,-81
2016-08-24T03:17:21.856Z,-81
2016-08-24T03:18:22.033Z,-81
2016-08-24T03:19:22.006Z,-81
2016-08-24T03:20:21.847Z,-81
2016-08-24T03:21:21.835Z,-82
2016-08-24T03:22:21.932Z,-81
2016-08-24T03:23:21.776Z,-81
2016-08-24T03:24:21.915Z,-81
2016-08-24T03:25:21.960Z,-81
2016-08-24T03:26:21.941Z,-81
2016-08-24T03:27:21.932Z,-81
2016-08-24T03:28:21.845Z,-81
2016-08-24T03:29:21.853Z,-81
2016-08-24T03:30:21.850Z,-81
2016-08-24T03:31:21.913Z,-81
2016-08-24T03:32:21.852Z,-81
2016-08-24T03:33:21.945Z,-81
2016-08-24T03:34:21.922Z,-81
2016-08-24T03:35:21.936Z,-82
2016-08-24T03:36:22.005Z,-81
2016-08-24T03:37:21.933Z,-81
2016-08-24T03:38:21.884Z,-81
2016-08-24T03:39:21.790Z,-81
2016-08-24T03:40:21.951Z,-81
2016-08-24T03:41:21.892Z,-81
2016-08-24T03:42:21.807Z,-81
2016-08-24T03:43:21.957Z,-81
2016-08-24T03:44:22.040Z,-81
2016-08-24T03:45:22.028Z,-81
2016-08-24T03:46:22.037Z,-81
2016-08-24T03:47:21.954Z,-81
2016-08-24T03:48:21.954Z,-81
2016-08-24T03:49:21.955Z,-81
2016-08-24T03:50:21.789Z,-81
2016-08-24T03:51:21.951Z,-81
2016-08-24T03:52:21.880Z,-81
2016-08-24T03:53:21.880Z,-81
2016-08-24T03:54:21.896Z,-81
2016-08-24T03:55:21.960Z,-81
2016-08-24T03:56:22.025Z,-81
2016-08-24T03:57:21.881Z,-81
2016-08-24T03:58:21.823Z,-81
2016-08-24T03:59:21.973Z,-81
2016-08-24T04:00:21.894Z,-81
2016-08-24T04:01:21.980Z,-81
2016-08-24T04:02:21.981Z,-81
2016-08-24T04:03:22.087Z,-81
2016-08-24T04:04:21.972Z,-81
2016-08-24T04:05:21.990Z,-81
2016-08-24T04:06:21.984Z,-81
2016-08-24T04:07:21.898Z,-81
2016-08-24T04:08:21.928Z,-81
2016-08-24T04:09:21.999Z,-81
2016-08-24T04:10:22.010Z,-81
2016-08-24T04:11:22.091Z,-81
2016-08-24T04:12:21.992Z,-81
2016-08-24T04:13:21.934Z,-81
2016-08-24T04:14:21.920Z,-81
2016-08-24T04:15:21.981Z,-81
2016-08-24T04:16:21.914Z,-81
2016-08-24T04:17:21.901Z,-81
2016-08-24T04:18:22.002Z,-81
2016-08-24T04:19:22.001Z,-81
2016-08-24T04:20:22.056Z,-81
2016-08-24T04:21:21.949Z,-81
2016-08-24T04:22:21.914Z,-81
2016-08-24T04:23:21.940Z,-81
2016-08-24T04:24:21.996Z,-81
2016-08-24T04:25:22.004Z,-81
2016-08-24T04:26:21.923Z,-81
2016-08-24T04:27:22.003Z,-81
2016-08-24T04:28:22.055Z,-81
2016-08-24T04:29:21.857Z,-81
2016-08-24T04:30:21.855Z,-81
2016-08-24T04:31:21.922Z,-81
2016-08-24T04:32:21.963Z,-81
2016-08-24T04:33:22.015Z,-81
2016-08-24T04:34:21.947Z,-81
2016-08-24T04:35:21.940Z,-81
2016-08-24T04:36:22.023Z,-81
2016-08-24T04:37:21.941Z,-81
2016-08-24T04:38:22.036Z,-81
2016-08-24T04:39:22.111Z,-81
2016-08-24T04:40:22.115Z,-81
2016-08-24T04:41:21.974Z,-81
2016-08-24T04:42:22.130Z,-81
2016-08-24T04:43:21.962Z,-81
2016-08-24T04:44:22.086Z,-81
2016-08-24T04:45:22.063Z,-81
2016-08-24T04:46:22.095Z,-81
2016-08-24T04:47:21.878Z,-81
2016-08-24T04:48:21.974Z,-81
2016-08-24T04:49:21.967Z,-81
2016-08-24T04:50:22.127Z,-81
2016-08-24T04:51:21.974Z,-81
2016-08-24T04:52:21.885Z,-86
2016-08-24T04:53:21.984Z,-90
2016-08-24T04:54:21.958Z,-90
2016-08-24T04:55:21.980Z,-89
2016-08-24T04:56:22.044Z,-90
2016-08-24T04:57:21.901Z,-89
2016-08-24T04:58:22.044Z,-89
2016-08-24T04:59:21.907Z,-89
2016-08-24T05:00:22.169Z,-89
2016-08-24T05:01:22.059Z,-89
2016-08-24T05:02:21.964Z,-89
2016-08-24T05:03:22.150Z,-89
2016-08-24T05:04:22.038Z,-89
2016-08-24T05:05:22.060Z,-90
2016-08-24T05:06:22.063Z,-89
2016-08-24T05:07:21.989Z,-89
2016-08-24T05:08:22.050Z,-89
2016-08-24T05:09:22.015Z,-89
2016-08-24T05:10:21.981Z,-89
2016-08-24T05:11:22.053Z,-89
2016-08-24T05:12:21.998Z,-89
2016-08-24T05:13:22.199Z,-89
2016-08-24T05:14:21.899Z,-90
2016-08-24T05:15:22.075Z,-90
2016-08-24T05:16:22.136Z,-90
2016-08-24T05:17:21.996Z,-89
2016-08-24T05:18:21.907Z,-89
2016-08-24T05:19:22.069Z,-90
2016-08-24T05:20:22.064Z,-89
2016-08-24T05:21:22.012Z,-89
2016-08-24T05:22:22.068Z,-90
2016-08-24T05:23:22.009Z,-89
2016-08-24T05:24:22.076Z,-90
2016-08-24T05:25:22.102Z,-89
2016-08-24T05:26:21.927Z,-90
2016-08-24T05:27:21.997Z,-89
2016-08-24T05:28:22.087Z,-89
2016-08-24T05:29:22.038Z,-89
2016-08-24T05:30:22.170Z,-89
2016-08-24T05:31:22.101Z,-89
2016-08-24T05:32:22.100Z,-89
2016-08-24T05:33:22.168Z,-90
2016-08-24T05:34:22.183Z,-90
2016-08-24T05:35:22.025Z,-89
2016-08-24T05:36:22.028Z,-90
2016-08-24T05:37:22.094Z,-89
2016-08-24T05:38:22.111Z,-90
2016-08-24T05:39:21.945Z,-89
2016-08-24T05:40:22.094Z,-90
2016-08-24T05:41:22.162Z,-89
2016-08-24T05:42:22.037Z,-89
2016-08-24T05:43:22.021Z,-89
2016-08-24T05:44:21.945Z,-88
2016-08-24T05:45:21.943Z,-89
2016-08-24T05:46:21.965Z,-89
2016-08-24T05:47:22.043Z,-90
2016-08-24T05:48:22.091Z,-89
2016-08-24T05:49:21.947Z,-90
2016-08-24T05:50:21.967Z,-90
2016-08-24T05:51:22.187Z,-90
2016-08-24T05:52:22.109Z,-89
2016-08-24T05:53:22.184Z,-90
2016-08-24T05:54:21.961Z,-90
2016-08-24T05:55:22.026Z,-90
2016-08-24T05:56:21.952Z,-89
2016-08-24T05:57:22.065Z,-90
2016-08-24T05:58:22.798Z,-90
2016-08-24T05:59:21.984Z,-90
2016-08-24T06:00:22.132Z,-90
2016-08-24T06:01:22.227Z,-90
2016-08-24T06:02:22.051Z,-90
2016-08-24T06:03:22.001Z,-91
2016-08-24T06:04:22.249Z,-90
2016-08-24T06:05:21.986Z,-90
2016-08-24T06:06:22.164Z,-90
2016-08-24T06:07:22.123Z,-90
2016-08-24T06:08:21.989Z,-90
2016-08-24T06:09:22.135Z,-90
2016-08-24T06:10:22.095Z,-90
2016-08-24T06:11:22.087Z,-90
2016-08-24T06:12:22.262Z,-90
2016-08-24T06:13:22.208Z,-90
2016-08-24T06:14:22.164Z,-90
2016-08-24T06:15:22.148Z,-90
2016-08-24T06:16:22.163Z,-90
2016-08-24T06:17:22.095Z,-90
2016-08-24T06:18:22.151Z,-90
2016-08-24T06:19:22.075Z,-90
2016-08-24T06:20:22.015Z,-90
2016-08-24T06:21:22.166Z,-91
2016-08-24T06:22:22.142Z,-90
2016-08-24T06:23:22.087Z,-90
2016-08-24T06:24:22.556Z,-91
2016-08-24T06:25:22.266Z,-91
2016-08-24T06:26:22.160Z,-91
2016-08-24T06:27:22.081Z,-90
2016-08-24T06:28:22.159Z,-91
2016-08-24T06:29:22.003Z,-90
2016-08-24T06:30:22.092Z,-90
2016-08-24T06:31:22.100Z,-91
2016-08-24T06:32:22.026Z,-91
2016-08-24T06:33:22.270Z,-90
2016-08-24T06:34:22.251Z,-90
2016-08-24T06:35:22.255Z,-90
2016-08-24T06:36:22.116Z,-90
2016-08-24T06:37:22.086Z,-90
2016-08-24T06:38:22.102Z,-91
2016-08-24T06:39:22.174Z,-90
2016-08-24T06:40:22.302Z,-91
2016-08-24T06:41:22.182Z,-90
2016-08-24T06:42:22.127Z,-91
2016-08-24T06:43:22.261Z,-91
2016-08-24T06:44:22.182Z,-90
2016-08-24T06:45:22.267Z,-90
2016-08-24T06:46:22.196Z,-91
2016-08-24T06:47:22.193Z,-91
2016-08-24T06:48:22.195Z,-90
2016-08-24T06:49:22.135Z,-91
2016-08-24T06:50:22.186Z,-91
2016-08-24T06:51:22.135Z,-91
2016-08-24T06:52:22.184Z,-92
2016-08-24T06:53:22.129Z,-91
2016-08-24T06:54:22.132Z,-91
2016-08-24T06:55:22.214Z,-91
2016-08-24T06:56:22.272Z,-91
2016-08-24T06:57:22.143Z,-91
2016-08-24T06:58:22.064Z,-91
2016-08-24T06:59:22.135Z,-92
2016-08-24T07:00:22.217Z,-91
2016-08-24T07:01:22.220Z,-91
2016-08-24T07:02:22.142Z,-91
2016-08-24T07:03:22.211Z,-92
2016-08-24T07:04:22.245Z,-92
2016-08-24T07:05:22.725Z,-91
2016-08-24T07:06:22.147Z,-91
2016-08-24T07:07:22.144Z,-92
2016-08-24T07:08:22.254Z,-92
2016-08-24T07:09:22.210Z,-92
2016-08-24T07:10:22.150Z,-92
2016-08-24T07:11:22.784Z,-92
2016-08-24T07:12:22.492Z,-92
2016-08-24T07:13:22.259Z,-92
2016-08-24T07:14:22.238Z,-92
2016-08-24T07:15:22.184Z,-92
2016-08-24T07:16:22.262Z,-93
2016-08-24T07:17:22.267Z,-92
2016-08-24T07:18:22.228Z,-92
2016-08-24T07:19:22.273Z,-92
2016-08-24T07:20:22.209Z,-92
2016-08-24T07:21:22.329Z,-92
2016-08-24T07:22:22.091Z,-92
2016-08-24T07:23:22.246Z,-92
2016-08-24T07:24:22.107Z,-93
2016-08-24T07:25:22.280Z,-93
2016-08-24T07:26:22.255Z,-93
2016-08-24T07:27:22.966Z,-92
2016-08-24T07:28:29.578Z,-93
2016-08-24T07:29:22.177Z,-92
2016-08-24T07:30:22.248Z,-93
2016-08-24T07:31:22.152Z,-92
2016-08-24T07:32:22.323Z,-92
2016-08-24T07:33:22.359Z,-93
2016-08-24T07:34:22.111Z,-93
2016-08-24T07:35:22.300Z,-93
2016-08-24T07:36:22.367Z,-92
2016-08-24T07:37:22.215Z,-93
2016-08-24T07:38:22.224Z,-92
2016-08-24T07:39:22.180Z,-92
2016-08-24T07:40:22.425Z,-92
2016-08-24T07:41:33.998Z,-92
2016-08-24T07:42:23.010Z,-93
2016-08-24T07:43:22.308Z,-92
2016-08-24T07:44:22.214Z,-93
2016-08-24T07:45:23.244Z,-92
2016-08-24T07:46:22.309Z,-93
2016-08-24T07:47:22.818Z,-93
2016-08-24T07:48:22.186Z,-91
2016-08-24T07:49:22.363Z,-93
2016-08-24T07:50:22.368Z,-93
2016-08-24T07:51:22.211Z,-92
2016-08-24T07:52:22.191Z,-93
2016-08-24T07:53:22.297Z,-93
2016-08-24T07:54:22.315Z,-92
2016-08-24T07:55:22.202Z,-93
2016-08-24T07:56:22.390Z,-93
2016-08-24T07:57:22.136Z,-94
2016-08-24T07:58:22.245Z,-92
2016-08-24T07:59:22.224Z,-93
2016-08-24T08:00:22.306Z,-93
2016-08-24T08:01:22.300Z,-92
2016-08-24T08:02:22.301Z,-93
2016-08-24T08:03:22.329Z,-92
2016-08-24T08:04:22.370Z,-93
2016-08-24T08:05:22.406Z,-93
2016-08-24T08:06:22.262Z,-93
2016-08-24T08:07:22.391Z,-93
2016-08-24T08:08:22.445Z,-94
2016-08-24T08:09:22.608Z,-92
2016-08-24T08:10:22.338Z,-93
2016-08-24T08:11:23.041Z,-89
2016-08-24T08:12:22.393Z,-92
2016-08-24T08:13:22.438Z,-92
2016-08-24T08:14:22.801Z,-92
2016-08-24T08:15:22.891Z,-94
2016-08-24T08:16:22.372Z,-95
2016-08-24T08:17:22.415Z,-93
2016-08-24T08:18:22.272Z,-94
2016-08-24T08:19:22.331Z,-94
2016-08-24T08:20:22.286Z,-94
2016-08-24T08:21:22.360Z,-95
2016-08-24T08:22:22.419Z,-96
2016-08-24T08:23:22.320Z,-95
2016-08-24T08:24:22.266Z,-96
2016-08-24T08:25:22.258Z,-94
2016-08-24T08:26:22.524Z,-96
2016-08-24T08:27:22.265Z,-91
2016-08-24T08:28:22.297Z,-96
2016-08-24T08:29:22.346Z,-91
2016-08-24T08:30:22.362Z,-94
2016-08-24T08:31:22.512Z,-96
2016-08-24T08:32:22.354Z,-95
2016-08-24T08:33:23.071Z,-94
2016-08-24T08:34:22.295Z,-95
2016-08-24T08:35:22.494Z,-94
2016-08-24T08:36:22.988Z,-94
2016-08-24T08:37:22.282Z,-96
2016-08-24T08:38:22.300Z,-93
2016-08-24T08:39:22.484Z,-91
2016-08-24T08:40:22.383Z,-93
2016-08-24T08:41:22.433Z,-93
2016-08-24T08:42:22.513Z,-93
2016-08-24T08:43:22.477Z,-91
2016-08-24T08:44:22.378Z,-92
2016-08-24T08:45:22.436Z,-96
2016-08-24T08:46:22.384Z,-94
2016-08-24T08:47:22.372Z,-95
2016-08-24T08:48:22.294Z,-96
2016-08-24T08:49:22.383Z,-93
2016-08-24T08:50:22.299Z,-90
2016-08-24T08:51:22.945Z,-89
2016-08-24T08:52:23.034Z,-91
2016-08-24T08:53:22.715Z,-89
2016-08-24T08:54:22.449Z,-88
2016-08-24T08:55:22.315Z,-94
2016-08-24T08:56:22.336Z,-92
2016-08-24T08:57:22.357Z,-94
2016-08-24T08:58:22.435Z,-90
2016-08-24T08:59:22.322Z,-88
2016-08-24T09:00:22.347Z,-89
2016-08-24T09:01:22.481Z,-90
2016-08-24T09:02:22.427Z,-93
2016-08-24T09:03:22.886Z,-92
2016-08-24T09:04:22.394Z,-92
2016-08-24T09:05:22.672Z,-92
2016-08-24T09:06:22.435Z,-93
2016-08-24T09:07:22.355Z,-95
2016-08-24T09:08:23.162Z,-95
2016-08-24T09:09:22.414Z,-93
2016-08-24T09:10:22.550Z,-92
2016-08-24T09:11:23.308Z,-90
2016-08-24T09:12:22.516Z,-90
2016-08-24T09:13:22.340Z,-89
2016-08-24T09:14:22.497Z,-89
2016-08-24T09:15:22.333Z,-90
2016-08-24T09:16:22.347Z,-87
2016-08-24T09:17:23.455Z,-87
2016-08-24T09:18:22.454Z,-90
2016-08-24T09:19:22.356Z,-89
2016-08-24T09:20:22.447Z,-93
2016-08-24T09:21:22.344Z,-91
2016-08-24T09:22:22.425Z,-87
2016-08-24T09:23:22.363Z,-88
2016-08-24T09:24:22.432Z,-87
2016-08-24T09:25:22.529Z,-87
2016-08-24T09:26:22.524Z,-92
2016-08-24T09:27:22.541Z,-92
2016-08-24T09:28:22.415Z,-92
2016-08-24T09:29:22.372Z,-93
2016-08-24T09:30:22.523Z,-91
2016-08-24T09:31:22.464Z,-87
2016-08-24T09:32:22.459Z,-87
2016-08-24T09:33:22.421Z,-86
2016-08-24T09:34:22.404Z,-87
2016-08-24T09:35:22.406Z,-85
2016-08-24T09:36:22.532Z,-84
2016-08-24T09:37:22.552Z,-85
2016-08-24T09:38:22.532Z,-85
2016-08-24T09:39:22.455Z,-85
2016-08-24T09:40:22.514Z,-84
2016-08-24T09:41:22.382Z,-84
2016-08-24T09:42:23.030Z,-83
2016-08-24T09:43:22.463Z,-84
2016-08-24T09:44:22.525Z,-83
2016-08-24T09:45:23.058Z,-83
2016-08-24T09:46:23.212Z,-83
2016-08-24T09:47:22.493Z,-83
2016-08-24T09:48:22.491Z,-84
2016-08-24T09:49:22.481Z,-85
2016-08-24T09:50:22.505Z,-84
2016-08-24T09:51:22.591Z,-85
2016-08-24T09:52:22.480Z,-84
2016-08-24T09:53:24.569Z,-86
2016-08-24T09:54:22.538Z,-84
2016-08-24T09:55:22.405Z,-85
2016-08-24T09:56:22.528Z,-85
2016-08-24T09:57:22.406Z,-87
2016-08-24T09:58:22.418Z,-86
2016-08-24T09:59:23.223Z,-86
2016-08-24T10:00:22.541Z,-86
2016-08-24T10:01:22.630Z,-85
2016-08-24T10:02:22.356Z,-86
2016-08-24T10:03:22.521Z,-85
2016-08-24T10:04:22.459Z,-84
2016-08-24T10:05:22.731Z,-84
2016-08-24T10:06:22.419Z,-85
2016-08-24T10:07:22.504Z,-85
2016-08-24T10:08:22.621Z,-88
2016-08-24T10:09:22.355Z,-86
2016-08-24T10:10:22.641Z,-88
2016-08-24T10:11:22.448Z,-87
2016-08-24T10:12:22.451Z,-86
2016-08-24T10:13:22.599Z,-87
2016-08-24T10:14:22.548Z,-86
2016-08-24T10:15:22.520Z,-86
2016-08-24T10:16:22.606Z,-86
2016-08-24T10:17:22.595Z,-86
2016-08-24T10:18:22.666Z,-87
2016-08-24T10:19:22.360Z,-85
2016-08-24T10:20:22.580Z,-85
2016-08-24T10:21:22.378Z,-85
2016-08-24T10:22:22.528Z,-87
2016-08-24T10:23:22.440Z,-86
2016-08-24T10:24:22.537Z,-85
2016-08-24T10:25:22.632Z,-86
2016-08-24T10:26:22.452Z,-86
2016-08-24T10:27:22.451Z,-86
2016-08-24T10:28:22.540Z,-86
2016-08-24T10:29:22.456Z,-86
2016-08-24T10:30:22.403Z,-87
2016-08-24T10:31:22.470Z,-89
2016-08-24T10:32:22.622Z,-88
2016-08-24T10:33:22.576Z,-86
2016-08-24T10:34:22.484Z,-86
2016-08-24T10:35:22.534Z,-87
2016-08-24T10:36:22.663Z,-86
2016-08-24T10:37:22.496Z,-87
2016-08-24T10:38:22.555Z,-86
2016-08-24T10:39:22.586Z,-87
2016-08-24T10:40:22.592Z,-86
2016-08-24T10:41:22.551Z,-87
2016-08-24T10:42:22.560Z,-86
2016-08-24T10:43:22.596Z,-87
2016-08-24T10:44:22.552Z,-87
2016-08-24T10:45:22.629Z,-86
2016-08-24T10:46:22.628Z,-88
2016-08-24T10:47:22.554Z,-86
2016-08-24T10:48:22.649Z,-85
2016-08-24T10:49:22.434Z,-89
2016-08-24T10:50:22.533Z,-88
2016-08-24T10:51:22.574Z,-86
2016-08-24T10:52:22.653Z,-85
2016-08-24T10:53:22.587Z,-87
2016-08-24T10:54:22.507Z,-85
2016-08-24T10:55:22.524Z,-85
2016-08-24T10:56:22.506Z,-86
2016-08-24T10:57:22.525Z,-87
2016-08-24T10:58:22.562Z,-87
2016-08-24T10:59:22.435Z,-86
2016-08-24T11:00:22.449Z,-86
2016-08-24T11:01:22.539Z,-86
2016-08-24T11:02:22.631Z,-86
2016-08-24T11:03:22.601Z,-85
2016-08-24T11:04:22.626Z,-86
2016-08-24T11:05:22.776Z,-86
2016-08-24T11:06:22.562Z,-87
2016-08-24T11:07:23.162Z,-86
2016-08-24T11:08:22.637Z,-86
2016-08-24T11:09:22.520Z,-86
2016-08-24T11:10:22.482Z,-86
2016-08-24T11:11:22.557Z,-86
2016-08-24T11:12:22.483Z,-85
2016-08-24T11:13:22.471Z,-86
2016-08-24T11:14:22.594Z,-85
2016-08-24T11:15:22.484Z,-87
2016-08-24T11:16:22.610Z,-87
2016-08-24T11:17:22.557Z,-89
2016-08-24T11:18:22.553Z,-86
2016-08-24T11:19:22.588Z,-88
2016-08-24T11:20:22.609Z,-88
2016-08-24T11:21:22.622Z,-88
2016-08-24T11:22:22.632Z,-88
2016-08-24T11:23:22.486Z,-88
2016-08-24T11:24:22.512Z,-88
2016-08-24T11:25:22.571Z,-87
2016-08-24T11:26:22.597Z,-88
2016-08-24T11:27:22.629Z,-87
2016-08-24T11:28:22.745Z,-86
2016-08-24T11:29:22.472Z,-86
2016-08-24T11:30:22.871Z,-84
2016-08-24T11:31:22.727Z,-86
2016-08-24T11:32:22.806Z,-87
2016-08-24T11:33:22.669Z,-86
2016-08-24T11:34:22.663Z,-88
2016-08-24T11:35:23.187Z,-87
2016-08-24T11:36:22.619Z,-85
2016-08-24T11:37:22.694Z,-86
2016-08-24T11:38:22.784Z,-86
2016-08-24T11:39:22.654Z,-87
2016-08-24T11:40:22.709Z,-88
2016-08-24T11:41:22.693Z,-86
2016-08-24T11:42:23.661Z,-87
2016-08-24T11:43:22.683Z,-85
2016-08-24T11:44:22.759Z,-85
2016-08-24T11:45:22.540Z,-85
2016-08-24T11:46:22.713Z,-86
2016-08-24T11:47:22.635Z,-85
2016-08-24T11:48:22.694Z,-88
2016-08-24T11:49:22.799Z,-86
2016-08-24T11:50:22.638Z,-85
2016-08-24T11:51:22.766Z,-84
2016-08-24T11:52:22.702Z,-85
2016-08-24T11:53:22.671Z,-85
2016-08-24T11:54:22.794Z,-85
2016-08-24T11:55:23.383Z,-87
2016-08-24T11:56:22.630Z,-87
2016-08-24T11:57:22.584Z,-87
2016-08-24T11:58:22.826Z,-86
2016-08-24T11:59:22.662Z,-86
2016-08-24T12:00:22.806Z,-86
2016-08-24T12:01:22.665Z,-87
2016-08-24T12:02:23.204Z,-86
2016-08-24T12:03:22.542Z,-84
2016-08-24T12:04:22.735Z,-84
2016-08-24T12:05:22.914Z,-85
2016-08-24T12:06:22.748Z,-84
2016-08-24T12:07:22.595Z,-84
2016-08-24T12:08:23.246Z,-84
2016-08-24T12:09:22.697Z,-85
2016-08-24T12:10:22.707Z,-85
2016-08-24T12:11:22.800Z,-84
2016-08-24T12:12:22.597Z,-84
2016-08-24T12:13:22.867Z,-85
2016-08-24T12:14:22.795Z,-86
2016-08-24T12:15:22.803Z,-86
2016-08-24T12:16:22.682Z,-85
2016-08-24T12:17:22.618Z,-85
2016-08-24T12:18:22.823Z,-84
2016-08-24T12:19:22.708Z,-86
2016-08-24T12:20:22.681Z,-85
2016-08-24T12:21:22.577Z,-82
2016-08-24T12:22:22.747Z,-83
2016-08-24T12:23:23.620Z,-85
2016-08-24T12:24:22.721Z,-85
2016-08-24T12:25:22.639Z,-86
2016-08-24T12:26:22.839Z,-86
2016-08-24T12:27:22.705Z,-86
2016-08-24T12:28:22.679Z,-85
2016-08-24T12:29:22.737Z,-86
2016-08-24T12:30:22.803Z,-86
2016-08-24T12:31:22.771Z,-86
2016-08-24T12:32:22.654Z,-87
2016-08-24T12:33:22.811Z,-84
2016-08-24T12:34:22.826Z,-85
2016-08-24T12:35:22.757Z,-85
2016-08-24T12:36:22.690Z,-86
2016-08-24T12:37:22.781Z,-86
2016-08-24T12:38:22.729Z,-86
2016-08-24T12:39:22.833Z,-85
2016-08-24T12:40:22.707Z,-85
2016-08-24T12:41:22.753Z,-87
2016-08-24T12:42:22.780Z,-85
2016-08-24T12:43:22.675Z,-86
2016-08-24T12:44:22.699Z,-85
2016-08-24T12:45:23.933Z,-86
2016-08-24T12:46:22.821Z,-86
2016-08-24T12:47:22.678Z,-86
2016-08-24T12:48:22.781Z,-87
2016-08-24T12:49:22.592Z,-86
2016-08-24T12:50:22.822Z,-87
2016-08-24T12:51:23.129Z,-86
2016-08-24T12:52:22.711Z,-85
2016-08-24T12:53:22.609Z,-85
2016-08-24T12:54:22.829Z,-85
2016-08-24T12:55:22.771Z,-87
2016-08-24T12:56:22.734Z,-86
2016-08-24T12:57:22.613Z,-86
2016-08-24T12:58:22.785Z,-86
2016-08-24T12:59:22.781Z,-86
2016-08-24T13:00:22.943Z,-86
2016-08-24T13:01:22.812Z,-85
2016-08-24T13:02:23.456Z,-85
2016-08-24T13:03:22.768Z,-84
2016-08-24T13:04:22.726Z,-84
2016-08-24T13:05:22.651Z,-83
2016-08-24T13:06:23.013Z,-85
2016-08-24T13:07:22.802Z,-85
2016-08-24T13:08:22.953Z,-86
2016-08-24T13:09:22.913Z,-86
2016-08-24T13:10:22.869Z,-84
2016-08-24T13:11:22.703Z,-84
2016-08-24T13:12:22.783Z,-84
2016-08-24T13:13:22.715Z,-84
2016-08-24T13:14:22.911Z,-87
2016-08-24T13:15:22.801Z,-84
2016-08-24T13:16:25.625Z,-85
2016-08-24T13:17:22.790Z,-85
2016-08-24T13:18:22.899Z,-87
2016-08-24T13:19:22.919Z,-87
2016-08-24T13:20:23.503Z,-87
2016-08-24T13:21:23.481Z,-87
2016-08-24T13:22:22.884Z,-86
2016-08-24T13:23:22.657Z,-86
2016-08-24T13:24:22.915Z,-86
2016-08-24T13:25:22.757Z,-84
2016-08-24T13:26:22.754Z,-85
2016-08-24T13:27:22.767Z,-85
2016-08-24T13:28:22.786Z,-86
2016-08-24T13:29:22.854Z,-86
2016-08-24T13:30:22.880Z,-86
2016-08-24T13:31:22.889Z,-85
2016-08-24T13:32:23.877Z,-85
2016-08-24T13:33:24.066Z,-87
2016-08-24T13:34:22.814Z,-85
2016-08-24T13:35:23.278Z,-85
2016-08-24T13:36:23.407Z,-85
2016-08-24T13:37:23.164Z,-84
2016-08-24T13:38:22.884Z,-84
2016-08-24T13:39:22.870Z,-85
2016-08-24T13:40:23.072Z,-84
2016-08-24T13:41:22.878Z,-84
2016-08-24T13:42:22.893Z,-83
2016-08-24T13:43:22.847Z,-83
2016-08-24T13:44:22.807Z,-83
2016-08-24T13:45:23.606Z,-84
2016-08-24T13:46:23.032Z,-84